Time;durP1;ratioP1;P1;durP2;ratioP2;P2;SDS_P1;SDS_P2;PMS_P1;PMS_P2;Temp;Humidity;BMP_temperature;BMP_pressure;BME280_temperature;BME280_humidity;BME280_pressure;Samples;Min_cycle;Max_cycle;Signal;HPM_P1;HPM_P2
2022/03/23 00:01:40;;;;;;;111.43;46.93;;;4.80;99.90;;;;;;4426675;32;20529;-67
2022/03/23 00:04:07;;;;;;;112.13;46.00;;;4.80;99.90;;;;;;4415015;32;20196;-67
2022/03/23 00:06:34;;;;;;;111.50;46.40;;;4.70;99.90;;;;;;4427772;32;20573;-67
2022/03/23 00:09:02;;;;;;;105.20;44.77;;;4.70;99.90;;;;;;4426919;32;20192;-67
2022/03/23 00:11:29;;;;;;;110.80;45.90;;;4.60;99.90;;;;;;4413762;32;20166;-67
2022/03/23 00:13:56;;;;;;;110.60;47.07;;;4.60;99.90;;;;;;4426124;32;20244;-67
2022/03/23 00:16:23;;;;;;;111.37;47.40;;;4.60;99.90;;;;;;4411235;32;20561;-67
2022/03/23 00:18:50;;;;;;;110.07;46.47;;;4.60;99.90;;;;;;4411638;32;20175;-67
2022/03/23 00:21:17;;;;;;;110.63;46.60;;;4.50;99.90;;;;;;4426510;32;20201;-67
2022/03/23 00:23:44;;;;;;;115.20;47.20;;;4.40;99.90;;;;;;4412169;32;20215;-67
2022/03/23 00:26:15;;;;;;;102.53;45.43;;;4.40;99.90;;;;;;4423734;32;20198;-67
2022/03/23 00:28:42;;;;;;;111.90;47.53;;;4.40;99.90;;;;;;4411795;32;20169;-67
2022/03/23 00:31:09;;;;;;;110.97;48.17;;;4.40;99.90;;;;;;4411478;32;20196;-67
2022/03/23 00:33:37;;;;;;;113.70;47.57;;;4.40;99.90;;;;;;4425368;32;20220;-67
2022/03/23 00:36:06;;;;;;;112.37;48.00;;;4.30;99.90;;;;;;4411687;32;20197;-68
2022/03/23 00:38:34;;;;;;;107.27;47.63;;;4.20;99.90;;;;;;4410829;32;20181;-67
2022/03/23 00:41:03;;;;;;;117.77;50.30;;;4.30;99.90;;;;;;4411549;32;20169;-67
2022/03/23 00:43:31;;;;;;;112.57;49.33;;;4.20;99.90;;;;;;4411334;32;20213;-67
2022/03/23 00:45:59;;;;;;;121.30;49.97;;;4.20;99.90;;;;;;4411287;32;20200;-67
2022/03/23 00:48:27;;;;;;;114.00;49.13;;;4.10;99.90;;;;;;4423444;32;20209;-67
2022/03/23 00:50:56;;;;;;;118.00;50.13;;;4.00;99.90;;;;;;4411946;32;20176;-67
2022/03/23 00:53:23;;;;;;;122.40;50.87;;;3.90;99.90;;;;;;4423780;32;20173;-67
2022/03/23 00:55:50;;;;;;;126.50;52.00;;;3.90;99.90;;;;;;4423862;32;20198;-67
2022/03/23 00:58:17;;;;;;;123.97;52.33;;;3.90;99.90;;;;;;4424974;32;20175;-67
2022/03/23 01:00:45;;;;;;;122.10;50.40;;;3.80;99.90;;;;;;4411493;32;20173;-67
2022/03/23 01:03:12;;;;;;;122.63;50.73;;;3.80;99.90;;;;;;4412814;32;20192;-67
2022/03/23 01:05:40;;;;;;;126.37;51.60;;;3.80;99.90;;;;;;4426078;32;20162;-67
2022/03/23 01:08:07;;;;;;;119.77;50.63;;;3.70;99.90;;;;;;4423153;32;20614;-67
2022/03/23 01:10:34;;;;;;;133.27;53.87;;;3.70;99.90;;;;;;4424901;32;20243;-67
2022/03/23 01:13:01;;;;;;;127.27;51.67;;;3.60;99.90;;;;;;4411184;32;20484;-67
2022/03/23 01:15:29;;;;;;;125.13;50.57;;;3.60;99.90;;;;;;4426518;32;20525;-68
2022/03/23 01:17:56;;;;;;;122.53;51.63;;;3.50;99.90;;;;;;4410107;32;20175;-67
2022/03/23 01:20:24;;;;;;;122.03;52.30;;;3.50;99.90;;;;;;4425058;32;20483;-67
2022/03/23 01:22:51;;;;;;;127.47;51.93;;;3.50;99.90;;;;;;4411658;32;20383;-67
2022/03/23 01:25:18;;;;;;;124.77;52.43;;;3.50;99.90;;;;;;4424765;32;20264;-67
2022/03/23 01:27:46;;;;;;;122.90;51.60;;;3.50;99.90;;;;;;4423919;32;20581;-67
2022/03/23 01:30:15;;;;;;;133.27;53.07;;;3.40;99.90;;;;;;4411985;32;20518;-67
2022/03/23 01:32:44;;;;;;;128.13;53.17;;;3.40;99.90;;;;;;4425623;32;20147;-67
2022/03/23 01:35:12;;;;;;;130.40;53.63;;;3.40;99.90;;;;;;4425798;32;20170;-67
2022/03/23 01:37:38;;;;;;;126.23;54.00;;;3.40;99.90;;;;;;4424520;32;20186;-67
2022/03/23 01:40:08;;;;;;;127.07;52.77;;;3.40;99.90;;;;;;4425854;32;20165;-67
2022/03/23 01:42:36;;;;;;;134.60;53.57;;;3.30;99.90;;;;;;4425577;32;20509;-67
2022/03/23 01:45:05;;;;;;;125.50;53.87;;;3.30;99.90;;;;;;4425309;32;20136;-67
2022/03/23 01:47:33;;;;;;;129.60;53.43;;;3.20;99.90;;;;;;4423887;32;20203;-67
2022/03/23 01:50:00;;;;;;;125.33;54.30;;;3.20;99.90;;;;;;4412171;32;20204;-67
2022/03/23 01:52:30;;;;;;;128.17;53.77;;;3.20;99.90;;;;;;4423564;32;20612;-67
2022/03/23 01:55:00;;;;;;;129.00;52.70;;;3.10;99.90;;;;;;4410835;32;20214;-67
2022/03/23 01:57:29;;;;;;;131.27;54.00;;;3.10;99.90;;;;;;4410202;32;20212;-67
2022/03/23 01:59:57;;;;;;;129.83;54.07;;;3.10;99.90;;;;;;4424337;32;20204;-66
2022/03/23 02:02:24;;;;;;;124.77;52.60;;;3.10;99.90;;;;;;4423970;32;20189;-67
2022/03/23 02:04:51;;;;;;;131.77;51.70;;;3.10;99.90;;;;;;4423943;32;20168;-67
2022/03/23 02:07:18;;;;;;;127.57;52.63;;;3.00;99.90;;;;;;4423878;32;20179;-67
2022/03/23 02:09:45;;;;;;;131.53;52.57;;;3.00;99.90;;;;;;4424054;32;20146;-67
2022/03/23 02:12:12;;;;;;;127.87;52.97;;;3.00;99.90;;;;;;4423475;32;20191;-67
2022/03/23 02:14:39;;;;;;;124.30;53.37;;;3.00;99.90;;;;;;4410577;32;20175;-67
2022/03/23 02:17:06;;;;;;;128.03;52.37;;;2.90;99.90;;;;;;4423007;32;20170;-67
2022/03/23 02:19:33;;;;;;;135.27;53.70;;;2.90;99.90;;;;;;4421970;32;20244;-67
2022/03/23 02:22:02;;;;;;;132.37;52.33;;;2.90;99.90;;;;;;4423618;32;20226;-67
2022/03/23 02:24:31;;;;;;;131.40;53.77;;;2.90;99.90;;;;;;4410498;32;20170;-67
2022/03/23 02:26:59;;;;;;;124.97;53.40;;;2.90;99.90;;;;;;4422970;32;20267;-67
2022/03/23 02:29:34;;;;;;;127.20;53.30;;;2.80;99.90;;;;;;4421893;32;20167;-67
2022/03/23 02:32:01;;;;;;;117.27;51.40;;;2.80;99.90;;;;;;4422331;32;20183;-67
2022/03/23 02:34:29;;;;;;;120.93;51.63;;;2.80;99.90;;;;;;4424006;32;20236;-67
2022/03/23 02:36:57;;;;;;;126.60;52.00;;;2.80;99.90;;;;;;4422388;32;20171;-67
2022/03/23 02:39:25;;;;;;;122.63;52.43;;;2.70;99.90;;;;;;4423093;32;20147;-67
2022/03/23 02:41:56;;;;;;;125.47;51.13;;;2.70;99.90;;;;;;4423265;32;20170;-67
2022/03/23 02:44:26;;;;;;;122.03;51.07;;;2.70;99.90;;;;;;4410191;32;20170;-67
2022/03/23 02:46:53;;;;;;;122.43;50.83;;;2.60;99.90;;;;;;4410020;32;20175;-67
2022/03/23 02:49:20;;;;;;;119.37;51.87;;;2.60;99.90;;;;;;4421529;32;20238;-67
2022/03/23 02:51:48;;;;;;;121.53;50.73;;;2.60;99.90;;;;;;4409711;32;20237;-67
2022/03/23 03:03:33;;;;;;;87.33;39.60;;;2.70;99.90;;;;;;4379050;32;20172;-67
2022/03/23 03:06:05;;;;;;;124.80;49.03;;;2.70;99.90;;;;;;4379557;32;20169;-67
2022/03/23 03:08:50;;;;;;;109.60;47.67;;;2.70;99.90;;;;;;4378337;32;20264;-67
2022/03/23 03:11:19;;;;;;;88.00;40.37;;;2.80;99.90;;;;;;4378687;32;20226;-67
2022/03/23 03:13:49;;;;;;;102.07;43.70;;;2.80;99.90;;;;;;4391885;32;20160;-67
2022/03/23 03:16:17;;;;;;;87.83;39.67;;;2.90;99.90;;;;;;4378559;32;20234;-67
2022/03/23 03:18:46;;;;;;;100.23;41.67;;;2.90;99.90;;;;;;4377580;32;20250;-67
2022/03/23 03:21:15;;;;;;;84.67;39.77;;;3.10;99.90;;;;;;4379064;32;20190;-67
2022/03/23 03:23:44;;;;;;;85.60;40.50;;;3.10;99.90;;;;;;4379807;32;20231;-67
2022/03/23 03:26:12;;;;;;;99.70;44.27;;;3.20;99.90;;;;;;4379405;32;20189;-67
2022/03/23 03:28:41;;;;;;;108.17;45.63;;;3.10;99.90;;;;;;4378059;32;20196;-67
2022/03/23 03:31:10;;;;;;;111.20;46.50;;;3.10;99.90;;;;;;4378630;32;20258;-67
2022/03/23 03:33:39;;;;;;;110.93;46.63;;;3.00;99.90;;;;;;4378998;32;20555;-67
2022/03/23 03:36:06;;;;;;;104.30;45.63;;;3.00;99.90;;;;;;4391188;32;20181;-67
2022/03/23 03:38:35;;;;;;;103.83;45.00;;;2.90;99.90;;;;;;4392987;32;20178;-67
2022/03/23 03:41:03;;;;;;;88.43;41.17;;;2.90;99.90;;;;;;4422547;32;20175;-67
2022/03/23 03:43:31;;;;;;;80.07;38.70;;;2.80;99.90;;;;;;4422557;32;20169;-67
2022/03/23 03:45:59;;;;;;;69.70;35.00;;;2.90;99.90;;;;;;4422288;32;20227;-67
2022/03/23 03:48:26;;;;;;;79.33;35.63;;;2.90;99.90;;;;;;4426122;32;20188;-67
2022/03/23 03:50:54;;;;;;;88.37;38.03;;;3.00;99.90;;;;;;4425686;32;20128;-67
2022/03/23 03:53:21;;;;;;;76.07;34.73;;;3.00;99.90;;;;;;4425961;32;20167;-67
2022/03/23 03:55:55;;;;;;;75.00;34.03;;;3.10;99.90;;;;;;4426135;32;20189;-67
2022/03/23 03:58:23;;;;;;;72.40;34.57;;;3.20;99.90;;;;;;4425978;32;20176;-67
2022/03/23 04:00:51;;;;;;;73.43;34.97;;;3.20;99.90;;;;;;4411927;32;20259;-67
2022/03/23 04:03:18;;;;;;;66.30;32.73;;;3.30;99.90;;;;;;4413010;32;20209;-67
2022/03/23 04:05:46;;;;;;;71.83;32.57;;;3.30;99.90;;;;;;4427310;32;20158;-67
2022/03/23 04:08:13;;;;;;;69.50;33.23;;;3.30;99.90;;;;;;4426160;32;20175;-67
2022/03/23 04:10:40;;;;;;;62.63;30.90;;;3.40;99.90;;;;;;4412346;32;20179;-67
2022/03/23 04:13:07;;;;;;;66.33;31.73;;;3.40;99.90;;;;;;4425874;32;20463;-67
2022/03/23 04:15:36;;;;;;;66.47;31.03;;;3.50;99.90;;;;;;4425835;32;20185;-67
2022/03/23 04:18:03;;;;;;;63.67;31.13;;;3.50;99.90;;;;;;4426026;32;20392;-68
2022/03/23 04:20:30;;;;;;;66.90;32.90;;;3.60;99.90;;;;;;4411843;32;20179;-67
2022/03/23 04:22:57;;;;;;;69.27;32.70;;;3.70;99.90;;;;;;4424437;32;20163;-67
2022/03/23 04:25:24;;;;;;;68.97;33.97;;;3.70;99.90;;;;;;4413040;32;20185;-68
2022/03/23 04:27:57;;;;;;;64.60;33.27;;;3.70;99.90;;;;;;4424064;32;20432;-67
2022/03/23 04:30:30;;;;;;;65.13;32.83;;;3.70;99.90;;;;;;4425225;32;20181;-67
2022/03/23 04:32:59;;;;;;;70.83;33.23;;;3.60;99.90;;;;;;4411820;32;20178;-67
2022/03/23 04:35:26;;;;;;;73.53;35.50;;;3.60;99.90;;;;;;4426949;32;20194;-67
2022/03/23 04:37:53;;;;;;;72.63;33.87;;;3.60;99.90;;;;;;4411479;32;20178;-67
2022/03/23 04:40:22;;;;;;;68.37;33.67;;;3.50;99.90;;;;;;4423752;32;20206;-67
2022/03/23 04:42:49;;;;;;;69.47;33.50;;;3.40;99.90;;;;;;4411464;32;20479;-67
2022/03/23 04:45:17;;;;;;;75.27;35.10;;;3.40;99.90;;;;;;4424027;32;20170;-67
2022/03/23 04:47:44;;;;;;;67.30;32.63;;;3.40;99.90;;;;;;4406155;32;20172;-67
2022/03/23 04:50:12;;;;;;;67.07;32.90;;;3.30;99.90;;;;;;4398719;32;20247;-67
2022/03/23 04:52:42;;;;;;;70.23;32.60;;;3.30;99.90;;;;;;4401013;32;20196;-67
2022/03/23 04:55:09;;;;;;;72.90;34.90;;;3.40;99.90;;;;;;4396747;32;20259;-67
2022/03/23 04:57:37;;;;;;;72.17;34.77;;;3.40;99.90;;;;;;4409010;32;20180;-67
2022/03/23 05:00:13;;;;;;;75.67;35.60;;;3.40;99.90;;;;;;4397136;32;20180;-67
2022/03/23 05:02:45;;;;;;;70.40;33.63;;;3.40;99.90;;;;;;4421253;32;20176;-67
2022/03/23 05:05:13;;;;;;;71.47;34.87;;;3.40;99.90;;;;;;4424199;32;20177;-67
2022/03/23 05:07:41;;;;;;;70.43;33.90;;;3.50;99.90;;;;;;4425248;32;20169;-67
2022/03/23 05:10:10;;;;;;;79.00;37.07;;;3.50;99.90;;;;;;4410965;32;20195;-67
2022/03/23 05:12:37;;;;;;;79.37;36.70;;;3.50;99.90;;;;;;4423283;32;20201;-67
2022/03/23 05:15:06;;;;;;;84.87;37.63;;;3.50;99.90;;;;;;4423803;32;20428;-67
2022/03/23 05:17:33;;;;;;;70.27;35.67;;;3.50;99.90;;;;;;4424123;32;20175;-67
2022/03/23 05:20:01;;;;;;;77.10;37.07;;;3.50;99.90;;;;;;4425520;32;20190;-67
2022/03/23 05:22:28;;;;;;;75.60;37.40;;;3.50;99.90;;;;;;4410110;32;20198;-67
2022/03/23 05:24:55;;;;;;;77.60;36.97;;;3.60;99.90;;;;;;4425724;32;20147;-67
2022/03/23 05:27:22;;;;;;;76.83;37.07;;;3.60;99.90;;;;;;4423194;32;20230;-68
2022/03/23 05:29:49;;;;;;;80.63;38.07;;;3.70;99.90;;;;;;4423606;32;20588;-68
2022/03/23 05:32:17;;;;;;;81.97;38.87;;;3.70;99.90;;;;;;4422457;32;20243;-67
2022/03/23 05:34:49;;;;;;;85.90;39.10;;;3.70;99.90;;;;;;4398364;32;20161;-68
2022/03/23 05:37:16;;;;;;;85.00;40.13;;;3.70;99.90;;;;;;4425603;32;20181;-68
2022/03/23 05:39:45;;;;;;;85.20;41.00;;;3.70;99.90;;;;;;4423394;32;20220;-68
2022/03/23 05:42:12;;;;;;;85.93;40.43;;;3.70;99.90;;;;;;4410237;32;20168;-67
2022/03/23 05:44:40;;;;;;;83.63;40.17;;;3.70;99.90;;;;;;4404096;32;20191;-68
2022/03/23 05:47:07;;;;;;;90.83;40.53;;;3.70;99.90;;;;;;4403858;32;20202;-67
2022/03/23 05:49:34;;;;;;;83.50;39.53;;;3.70;99.90;;;;;;4395898;32;20232;-68
2022/03/23 05:52:01;;;;;;;85.40;40.10;;;3.70;99.90;;;;;;4408620;32;20518;-68
2022/03/23 05:54:28;;;;;;;85.07;40.10;;;3.80;99.90;;;;;;4401323;32;20171;-68
2022/03/23 05:56:55;;;;;;;81.17;39.60;;;3.80;99.90;;;;;;4422806;32;20191;-67
2022/03/23 05:59:22;;;;;;;83.20;39.17;;;3.90;99.90;;;;;;4410755;32;20176;-67
2022/03/23 06:01:49;;;;;;;81.13;39.33;;;4.00;99.90;;;;;;4423116;32;20203;-68
2022/03/23 06:04:17;;;;;;;80.70;39.40;;;4.00;99.90;;;;;;4424679;32;20165;-68
2022/03/23 06:06:43;;;;;;;77.13;37.43;;;4.20;99.90;;;;;;4423009;32;20492;-68
2022/03/23 06:09:12;;;;;;;80.83;37.93;;;4.30;99.90;;;;;;4424012;32;20141;-68
2022/03/23 06:11:39;;;;;;;78.80;37.23;;;4.40;99.90;;;;;;4424215;32;20168;-68
2022/03/23 06:14:06;;;;;;;70.67;35.47;;;4.70;99.90;;;;;;4424345;32;20138;-68
2022/03/23 06:16:33;;;;;;;67.47;33.90;;;4.90;99.90;;;;;;4421353;32;20535;-67
2022/03/23 06:19:01;;;;;;;71.47;36.13;;;5.10;99.90;;;;;;4410769;32;20194;-68
2022/03/23 06:21:28;;;;;;;69.47;33.63;;;5.30;99.90;;;;;;4410931;32;20528;-67
2022/03/23 06:23:56;;;;;;;65.23;32.10;;;5.50;99.90;;;;;;4424615;32;20166;-68
2022/03/23 06:26:23;;;;;;;61.23;31.27;;;5.60;99.90;;;;;;4421307;32;20204;-68
2022/03/23 06:28:50;;;;;;;67.23;33.00;;;5.80;99.90;;;;;;4410164;32;20202;-68
2022/03/23 06:31:17;;;;;;;62.73;31.83;;;6.00;99.90;;;;;;4422517;32;20200;-68
2022/03/23 06:33:45;;;;;;;66.37;32.67;;;6.20;99.90;;;;;;4424219;32;20214;-68
2022/03/23 06:36:12;;;;;;;63.73;31.03;;;6.50;99.90;;;;;;4421833;32;20179;-67
2022/03/23 06:38:39;;;;;;;60.93;31.07;;;6.60;99.90;;;;;;4409930;32;20175;-68
2022/03/23 06:41:07;;;;;;;69.23;31.10;;;6.70;99.90;;;;;;4425183;32;20581;-68
2022/03/23 06:43:34;;;;;;;62.47;31.00;;;6.90;99.90;;;;;;4423847;32;20477;-68
2022/03/23 06:46:02;;;;;;;62.83;30.43;;;7.00;99.90;;;;;;4421622;32;20535;-67
2022/03/23 06:48:29;;;;;;;62.03;30.10;;;7.10;99.90;;;;;;4409558;32;20196;-68
2022/03/23 06:50:57;;;;;;;57.87;28.77;;;7.20;99.90;;;;;;4409637;32;20190;-67
2022/03/23 06:53:24;;;;;;;56.20;28.30;;;7.40;99.90;;;;;;4423764;32;20181;-67
2022/03/23 06:55:51;;;;;;;61.77;28.83;;;7.50;99.90;;;;;;4422102;32;20453;-68
2022/03/23 06:58:18;;;;;;;56.37;28.43;;;7.60;99.90;;;;;;4421563;32;20182;-67
2022/03/23 07:00:45;;;;;;;54.03;28.17;;;7.60;99.90;;;;;;4422662;32;20529;-69
2022/03/23 07:03:12;;;;;;;55.17;28.07;;;7.70;99.90;;;;;;4425034;32;20385;-69
2022/03/23 07:05:39;;;;;;;52.60;27.23;;;7.80;99.90;;;;;;4410104;32;20154;-69
2022/03/23 07:10:54;;;;;;;52.43;27.43;;;8.10;99.90;;;;;;4420895;32;20175;-70
2022/03/23 07:13:21;;;;;;;53.90;26.40;;;8.20;99.90;;;;;;4413534;32;20217;-69
2022/03/23 07:15:47;;;;;;;51.37;27.50;;;8.30;99.90;;;;;;4395086;32;20174;-70
2022/03/23 07:18:15;;;;;;;51.30;26.33;;;8.50;99.90;;;;;;4393375;32;20299;-70
2022/03/23 07:20:42;;;;;;;53.30;26.77;;;8.60;99.90;;;;;;4394497;32;20513;-69
2022/03/23 07:23:09;;;;;;;49.63;25.67;;;8.80;99.90;;;;;;4425507;32;20418;-70
2022/03/23 07:25:36;;;;;;;52.53;26.80;;;8.90;99.90;;;;;;4425221;32;20578;-69
2022/03/23 07:28:03;;;;;;;50.13;24.63;;;9.00;99.90;;;;;;4424106;32;20192;-69
2022/03/23 07:30:33;;;;;;;53.60;25.97;;;9.10;99.90;;;;;;4425200;32;20288;-70
2022/03/23 07:33:02;;;;;;;52.10;25.50;;;9.30;99.90;;;;;;4412245;32;20210;-70
2022/03/23 07:35:29;;;;;;;52.87;26.27;;;9.50;99.90;;;;;;4413236;32;20166;-70
2022/03/23 07:37:56;;;;;;;47.10;24.80;;;9.60;99.90;;;;;;4412189;32;20174;-69
2022/03/23 07:40:23;;;;;;;49.53;25.40;;;9.70;99.90;;;;;;4425331;32;20220;-70
2022/03/23 07:42:50;;;;;;;47.97;24.57;;;9.90;99.90;;;;;;4426296;32;20186;-69
2022/03/23 07:45:17;;;;;;;45.23;24.87;;;10.00;99.90;;;;;;4425856;32;20163;-69
2022/03/23 07:47:44;;;;;;;53.67;25.67;;;10.10;99.90;;;;;;4425527;32;20142;-70
2022/03/23 07:50:11;;;;;;;48.37;23.90;;;10.20;99.90;;;;;;4412948;32;20228;-70
2022/03/23 07:52:38;;;;;;;50.57;25.40;;;10.30;99.60;;;;;;4426196;32;20228;-70
2022/03/23 07:55:05;;;;;;;47.50;25.10;;;10.40;99.50;;;;;;4430160;32;20155;-69
2022/03/23 07:57:33;;;;;;;50.27;25.87;;;10.60;99.20;;;;;;4412284;32;20163;-70
2022/03/23 08:00:00;;;;;;;51.13;24.57;;;10.80;97.50;;;;;;4426094;32;20232;-70
2022/03/23 08:02:27;;;;;;;44.87;23.63;;;10.90;97.30;;;;;;4409471;32;20415;-70
2022/03/23 08:04:59;;;;;;;46.43;24.07;;;11.00;96.40;;;;;;4412438;32;20174;-69
2022/03/23 08:07:26;;;;;;;46.63;22.93;;;11.20;95.30;;;;;;4422123;32;20398;-69
2022/03/23 08:09:52;;;;;;;37.47;20.10;;;11.30;94.40;;;;;;4427209;32;20159;-69
2022/03/23 08:12:19;;;;;;;40.60;19.80;;;11.50;92.10;;;;;;4424642;32;20178;-69
2022/03/23 08:14:46;;;;;;;38.87;19.17;;;11.60;91.90;;;;;;4426744;32;20165;-69
2022/03/23 08:17:18;;;;;;;38.90;19.40;;;11.70;88.80;;;;;;4424617;32;20388;-70
2022/03/23 08:20:32;;;;;;;37.63;19.80;;;11.90;88.40;;;;;;4411283;32;20193;-69
2022/03/23 08:22:36;;;;;;;42.20;20.37;;;12.00;86.30;;;;;;4427343;32;20142;-68
2022/03/23 08:25:04;;;;;;;42.20;21.70;;;12.10;85.30;;;;;;4423957;32;20170;-69
2022/03/23 08:27:31;;;;;;;40.30;21.23;;;12.40;84.10;;;;;;4424760;32;20171;-69
2022/03/23 08:29:57;;;;;;;44.37;21.70;;;13.10;82.70;;;;;;4423403;32;20178;-68
2022/03/23 08:32:27;;;;;;;41.50;22.30;;;13.80;78.50;;;;;;4424155;32;20484;-69
2022/03/23 08:34:54;;;;;;;48.60;21.93;;;14.50;74.20;;;;;;4424072;32;20197;-69
2022/03/23 08:37:21;;;;;;;47.53;21.90;;;15.00;70.20;;;;;;4425760;32;20228;-69
2022/03/23 08:39:48;;;;;;;45.27;23.30;;;15.40;67.60;;;;;;4418719;32;20201;-68
2022/03/23 08:42:15;;;;;;;45.47;22.67;;;15.80;65.30;;;;;;4409554;32;20201;-69
2022/03/23 08:44:42;;;;;;;47.23;24.80;;;16.10;63.90;;;;;;4396476;32;20608;-68
2022/03/23 08:47:09;;;;;;;44.27;24.13;;;16.30;61.10;;;;;;4396534;32;20430;-68
2022/03/23 08:49:36;;;;;;;47.13;24.13;;;16.70;60.80;;;;;;4403886;32;20767;-68
2022/03/23 08:52:04;;;;;;;48.97;25.07;;;17.20;59.50;;;;;;4409034;32;20466;-67
2022/03/23 08:54:31;;;;;;;47.33;24.40;;;17.50;58.50;;;;;;4424705;32;20407;-68
2022/03/23 08:56:58;;;;;;;45.27;25.90;;;17.90;57.10;;;;;;4424118;32;20594;-68
2022/03/23 08:59:25;;;;;;;49.13;24.33;;;18.20;56.60;;;;;;4422601;32;20182;-68
2022/03/23 09:01:52;;;;;;;46.40;25.07;;;18.60;55.80;;;;;;4424483;32;20231;-68
2022/03/23 09:04:19;;;;;;;47.73;25.03;;;19.10;54.60;;;;;;4411070;32;20205;-68
2022/03/23 09:06:46;;;;;;;45.53;25.30;;;19.50;53.00;;;;;;4424218;32;20449;-69
2022/03/23 09:09:13;;;;;;;51.67;27.23;;;19.60;51.70;;;;;;4423293;32;20201;-69
2022/03/23 09:11:43;;;;;;;48.53;26.60;;;19.50;51.20;;;;;;4410031;32;20225;-68
2022/03/23 09:14:14;;;;;;;51.10;26.27;;;19.30;50.70;;;;;;4416844;32;20166;-68
2022/03/23 09:16:41;;;;;;;50.77;26.93;;;19.10;51.00;;;;;;4408794;32;20678;-69
2022/03/23 09:19:09;;;;;;;53.57;26.57;;;19.50;51.60;;;;;;4403004;32;20178;-69
2022/03/23 09:21:38;;;;;;;53.37;26.50;;;19.80;50.20;;;;;;4425105;32;20147;-69
2022/03/23 09:24:06;;;;;;;48.13;26.47;;;20.30;49.60;;;;;;4411574;32;20204;-69
2022/03/23 09:26:33;;;;;;;50.40;27.00;;;20.40;48.30;;;;;;4423391;32;20174;-69
2022/03/23 09:29:00;;;;;;;47.50;26.77;;;21.00;48.00;;;;;;4423504;32;20178;-69
2022/03/23 09:31:27;;;;;;;43.47;24.97;;;21.60;47.10;;;;;;4423259;32;20197;-69
2022/03/23 09:33:54;;;;;;;43.60;24.10;;;22.00;45.20;;;;;;4424764;32;20233;-69
2022/03/23 09:37:47;;;;;;;47.70;24.30;;;22.30;43.50;;;;;;4411524;32;20520;-71
2022/03/23 09:39:10;;;;;;;47.17;25.57;;;22.40;42.00;;;;;;4410627;32;20571;-70
2022/03/23 09:41:38;;;;;;;44.20;25.90;;;22.70;40.10;;;;;;4411556;32;20205;-69
2022/03/23 09:44:05;;;;;;;46.27;24.37;;;22.90;40.80;;;;;;4423702;32;20179;-70
2022/03/23 09:46:32;;;;;;;44.03;25.53;;;22.90;38.60;;;;;;4423194;32;20496;-69
2022/03/23 09:49:00;;;;;;;43.37;24.90;;;22.40;38.30;;;;;;4424199;32;20406;-70
2022/03/23 09:51:31;;;;;;;42.67;24.63;;;21.90;40.50;;;;;;4425011;32;20146;-67
2022/03/23 09:53:59;;;;;;;39.43;21.67;;;21.80;40.50;;;;;;4420479;32;20588;-67
2022/03/23 09:56:26;;;;;;;43.17;22.27;;;21.80;38.90;;;;;;4401307;32;20586;-69
2022/03/23 09:58:53;;;;;;;39.90;22.47;;;22.20;37.80;;;;;;4423475;32;20208;-68
2022/03/23 10:01:29;;;;;;;33.10;20.15;;;22.60;37.70;;;;;;4422962;32;20413;-68
2022/03/23 10:04:12;;;;;;;34.35;19.30;;;22.90;35.10;;;;;;4424232;32;20166;-68
2022/03/23 10:06:51;;;;;;;32.15;18.67;;;22.80;33.80;;;;;;4410728;32;20200;-67
2022/03/23 10:09:50;;;;;;;32.47;18.50;;;22.70;34.40;;;;;;4424278;32;20231;-67
2022/03/23 10:13:11;;;;;;;27.47;16.13;;;22.80;34.00;;;;;;4422944;32;20179;-67
2022/03/23 10:16:12;;;;;;;26.93;16.10;;;22.50;32.80;;;;;;4423521;32;20171;-68
2022/03/23 10:18:42;;;;;;;25.70;15.60;;;22.60;33.70;;;;;;4403358;32;20520;-67
2022/03/23 10:21:09;;;;;;;27.60;16.20;;;22.80;33.20;;;;;;4422525;32;20171;-66
2022/03/23 10:23:36;;;;;;;27.00;14.70;;;23.10;33.70;;;;;;4424006;32;20146;-66
2022/03/23 10:26:14;;;;;;;25.20;15.93;;;23.20;32.20;;;;;;4423095;32;20223;-67
2022/03/23 10:28:41;;;;;;;25.30;15.05;;;22.80;32.20;;;;;;4395684;32;20171;-72
2022/03/23 10:31:16;;;;;;;25.52;15.15;;;22.60;32.90;;;;;;4422382;32;20186;-73
2022/03/23 10:33:55;;;;;;;27.10;16.27;;;23.00;32.50;;;;;;4409469;32;20241;-72
2022/03/23 10:36:23;;;;;;;26.73;16.27;;;23.00;33.00;;;;;;4423199;32;20235;-71
2022/03/23 10:38:58;;;;;;;25.47;13.90;;;23.70;32.40;;;;;;4397653;32;20178;-72
2022/03/23 10:41:27;;;;;;;19.77;13.45;;;23.70;31.20;;;;;;4423468;32;20181;-72
2022/03/23 10:43:53;;;;;;;24.12;13.45;;;23.80;30.40;;;;;;4416420;32;20182;-73
2022/03/23 10:46:21;;;;;;;22.27;13.32;;;24.00;30.00;;;;;;4421097;32;20334;-72
2022/03/23 10:48:54;;;;;;;19.90;12.73;;;24.30;30.00;;;;;;4422791;32;20178;-73
2022/03/23 10:51:37;;;;;;;24.42;14.30;;;24.70;29.50;;;;;;4418897;32;20179;-72
2022/03/23 10:54:23;;;;;;;20.17;12.82;;;24.30;29.20;;;;;;4417384;32;20179;-72
2022/03/23 10:56:50;;;;;;;21.77;13.00;;;24.60;29.10;;;;;;4418589;32;20159;-73
2022/03/23 10:59:22;;;;;;;23.10;13.00;;;24.60;28.80;;;;;;4417114;32;20190;-71
2022/03/23 11:01:55;;;;;;;18.62;13.30;;;24.60;29.10;;;;;;4409098;32;20170;-72
2022/03/23 11:04:23;;;;;;;20.85;13.15;;;24.90;28.80;;;;;;4408616;32;20218;-72
2022/03/23 11:06:50;;;;;;;20.10;12.60;;;24.80;28.70;;;;;;4409724;32;20237;-72
2022/03/23 11:18:12;;;;;;;18.62;11.88;;;25.20;27.90;;;;;;4423152;32;20177;-73
2022/03/23 11:21:03;;;;;;;23.55;14.20;;;25.80;28.40;;;;;;4422033;32;20211;-72
2022/03/23 11:23:53;;;;;;;22.75;13.35;;;25.90;27.80;;;;;;4416273;32;20293;-73
2022/03/23 11:26:23;;;;;;;21.60;12.80;;;26.30;28.00;;;;;;4406846;32;20179;-73
2022/03/23 11:29:12;;;;;;;22.73;14.65;;;26.60;27.60;;;;;;4411768;32;20178;-73
2022/03/23 11:31:40;;;;;;;21.87;14.27;;;26.20;27.10;;;;;;4419432;32;20536;-73
2022/03/23 11:34:10;;;;;;;19.85;12.77;;;26.10;27.30;;;;;;4406895;32;20179;-73
2022/03/23 11:36:41;;;;;;;29.73;14.20;;;26.60;27.40;;;;;;4409673;32;20159;-72
2022/03/23 11:39:10;;;;;;;24.25;14.70;;;26.40;26.80;;;;;;4405341;32;20182;-73
2022/03/23 11:41:43;;;;;;;21.85;12.95;;;26.70;27.00;;;;;;4399416;32;20170;-73
2022/03/23 11:44:16;;;;;;;22.42;12.93;;;26.80;27.00;;;;;;4406616;32;20175;-72
2022/03/23 11:46:45;;;;;;;20.00;12.73;;;27.30;26.40;;;;;;4418502;32;20209;-73
2022/03/23 11:49:25;;;;;;;19.52;12.95;;;27.70;26.00;;;;;;4407763;32;20206;-72
2022/03/23 11:52:16;;;;;;;23.15;13.43;;;28.70;25.10;;;;;;4406847;32;20197;-73
2022/03/23 11:57:56;;;;;;;18.10;12.25;;;29.80;24.90;;;;;;4419047;32;20178;-73
2022/03/23 12:00:39;;;;;;;21.00;13.25;;;30.50;24.40;;;;;;4402977;32;20515;-70
2022/03/23 12:03:07;;;;;;;20.17;12.75;;;30.90;23.70;;;;;;4405072;32;20209;-71
2022/03/23 12:05:35;;;;;;;21.25;13.23;;;31.40;23.30;;;;;;4406380;32;20171;-71
2022/03/23 12:08:05;;;;;;;18.73;12.90;;;30.70;22.80;;;;;;4405933;32;20220;-71
2022/03/23 12:10:42;;;;;;;20.85;13.62;;;30.70;23.40;;;;;;4408158;32;20178;-72
2022/03/23 12:13:19;;;;;;;21.98;13.77;;;31.10;23.10;;;;;;4420921;32;20232;-71
2022/03/23 12:16:01;;;;;;;21.77;14.73;;;31.70;23.10;;;;;;4409070;32;20232;-72
2022/03/23 12:19:00;;;;;;;21.80;13.75;;;31.50;23.20;;;;;;4407962;32;20183;-73
2022/03/23 12:21:48;;;;;;;29.23;14.70;;;32.10;22.70;;;;;;4350194;33;20467;-72
2022/03/23 12:24:39;;;;;;;21.70;13.57;;;32.20;22.50;;;;;;4349599;33;20439;-72
2022/03/23 12:27:34;;;;;;;22.15;14.57;;;32.30;23.40;;;;;;4362149;32;20666;-73
2022/03/23 12:30:10;;;;;;;22.27;14.10;;;31.80;22.30;;;;;;4374386;32;20160;-72
2022/03/23 12:32:38;;;;;;;22.45;15.23;;;30.80;23.30;;;;;;4350896;32;20531;-72
2022/03/23 12:35:06;;;;;;;26.33;18.17;;;31.50;23.20;;;;;;4362753;32;20164;-73
2022/03/23 12:37:41;;;;;;;23.77;15.43;;;32.00;23.10;;;;;;4348982;32;20180;-73
2022/03/23 12:40:13;;;;;;;24.08;16.15;;;33.30;22.80;;;;;;4349707;33;20466;-74
2022/03/23 12:42:45;;;;;;;27.00;16.05;;;34.20;22.30;;;;;;4350461;33;20241;-74
2022/03/23 12:45:47;;;;;;;27.00;16.00;;;33.90;22.00;;;;;;4363618;32;20176;-74
2022/03/23 12:59:23;;;;;;;30.00;17.85;;;33.90;21.50;;;;;;4364157;32;20408;-69
2022/03/23 13:02:23;;;;;;;27.85;17.67;;;34.50;22.40;;;;;;4351490;33;20235;-69
2022/03/23 13:04:52;;;;;;;30.67;19.55;;;34.70;21.40;;;;;;4352007;33;20477;-69
2022/03/23 13:07:28;;;;;;;28.87;19.17;;;33.90;21.60;;;;;;4351567;33;20184;-69
2022/03/23 13:10:06;;;;;;;28.10;18.23;;;32.60;22.10;;;;;;4350541;33;20201;-68
2022/03/23 13:12:33;;;;;;;29.87;17.67;;;32.90;22.70;;;;;;4350900;33;20664;-69
2022/03/23 13:15:08;;;;;;;30.08;19.27;;;32.60;22.50;;;;;;4344594;33;20188;-72
2022/03/23 13:17:39;;;;;;;30.00;18.75;;;31.80;22.60;;;;;;4351098;33;20221;-72
2022/03/23 13:20:08;;;;;;;30.60;18.48;;;31.80;23.00;;;;;;4349920;33;20485;-73